Welcome to Des Moines Iowa Weather. I am an independent private personal weather station on the Northwest Side of Des Moines, Iowa. Just East of Windsor Heights and just West of Glendale . This site is also mobile friendly.

There are no active watches, warnings or advisories


Visit our other weather sites:

Historical Data

Weather Station Setup



Weather Underground History page Text

Daily Summary for March 2, 2018 Units:  English    Metric   Both
« Previous Day
Next Day »
Daily Weekly Monthly Yearly Custom
  High: Low: Average:
Temperature: 50.2 °F 23.0 °F 36.8 °F
Dew Point: 28.5 °F 20.0 °F 23.7 °F
Humidity: 93 % 32 % 64 %
Wind Speed: 9.0 mph 0.0 mph 1.9 mph
Wind Gust: 22.0 mph - -
Wind:- - SSE
Pressure: 30.46 in 30.26 in -
Precipitation: 0.00 in    
Historical Graphs
 
 
Tabular Data for March 2, 2018
Time Temperature Dew Point Pressure Wind Wind Speed Wind Gust Humidity Rainfall Rate (Hourly)
00:00 27.5 °F 23.0 °F 30.38 in Calm     83 % 0.00 in
00:05 27.5 °F 23.0 °F 30.38 in Calm     83 % 0.00 in
00:06 27.0 °F 23.0 °F 30.39 in Calm     84 % 0.00 in
00:10 27.5 °F 23.0 °F 30.38 in Calm     83 % 0.00 in
00:15 27.1 °F 22.6 °F 30.39 in Calm     83 % 0.00 in
00:20 26.7 °F 23.0 °F 30.40 in Calm     85 % 0.00 in
00:25 27.1 °F 22.6 °F 30.39 in Calm     83 % 0.00 in
00:30 26.8 °F 22.9 °F 30.40 in Calm     85 % 0.00 in
00:35 26.8 °F 22.9 °F 30.40 in Calm     85 % 0.00 in
00:36 26.3 °F 22.0 °F 30.40 in Calm     85 % 0.00 in
00:40 26.8 °F 22.9 °F 30.40 in Calm     85 % 0.00 in
00:45 26.5 °F 22.6 °F 30.40 in Calm     85 % 0.00 in
00:50 26.5 °F 22.6 °F 30.40 in Calm     85 % 0.00 in
00:51 26.0 °F 22.0 °F 30.40 in Calm     86 % 0.00 in
00:55 26.5 °F 22.6 °F 30.40 in Calm     85 % 0.00 in
01:00 26.1 °F 22.5 °F 30.40 in Calm     86 % 0.00 in
01:05 26.1 °F 22.5 °F 30.40 in Calm     86 % 0.00 in
01:06 25.7 °F 22.0 °F 30.41 in Calm     86 % 0.00 in
01:10 26.1 °F 22.5 °F 30.40 in Calm     86 % 0.00 in
01:15 25.8 °F 22.2 °F 30.41 in Calm     86 % 0.00 in
01:20 25.8 °F 22.2 °F 30.41 in Calm     86 % 0.00 in
01:21 25.4 °F 22.0 °F 30.41 in Calm     86 % 0.00 in
01:25 25.8 °F 22.2 °F 30.41 in Calm     86 % 0.00 in
01:30 25.6 °F 22.3 °F 30.41 in Calm     87 % 0.00 in
01:35 25.6 °F 22.3 °F 30.41 in Calm     87 % 0.00 in
01:36 25.1 °F 22.0 °F 30.41 in Calm     87 % 0.00 in
01:40 25.6 °F 22.3 °F 30.41 in Calm     87 % 0.00 in
01:45 25.2 °F 21.6 °F 30.42 in Calm     86 % 0.00 in
01:50 25.2 °F 21.6 °F 30.42 in Calm     86 % 0.00 in
01:51 24.7 °F 21.0 °F 30.42 in Calm     87 % 0.00 in
01:55 25.2 °F 21.6 °F 30.42 in Calm     86 % 0.00 in
02:00 24.8 °F 21.5 °F 30.41 in Calm     87 % 0.00 in
02:05 24.8 °F 21.5 °F 30.41 in Calm     87 % 0.00 in
02:06 24.3 °F 21.0 °F 30.41 in Calm     87 % 0.00 in
02:10 24.8 °F 21.5 °F 30.41 in Calm     87 % 0.00 in
02:15 24.5 °F 21.2 °F 30.41 in Calm     87 % 0.00 in
02:20 24.5 °F 21.2 °F 30.41 in Calm     87 % 0.00 in
02:21 24.5 °F 22.0 °F 30.39 in WNW 1.0 mph 2.0 mph 88 % 0.00 in
02:25 24.5 °F 21.2 °F 30.41 in Calm     87 % 0.00 in
02:30 24.3 °F 21.3 °F 30.41 in Calm     88 % 0.00 in
02:35 24.3 °F 21.3 °F 30.41 in Calm     88 % 0.00 in
02:36 25.2 °F 23.0 °F 30.37 in North 2.0 mph 3.0 mph 90 % 0.00 in
02:40 24.3 °F 21.3 °F 30.41 in Calm     88 % 0.00 in
02:45 24.5 °F 21.7 °F 30.38 in WNW 1.0 mph 2.0 mph 89 % 0.00 in
02:50 24.5 °F 21.7 °F 30.38 in WNW 1.0 mph 2.0 mph 89 % 0.00 in
02:51 26.4 °F 24.0 °F 30.39 in Calm   4.0 mph 90 % 0.00 in
02:55 24.5 °F 21.7 °F 30.38 in WNW 1.0 mph 2.0 mph 89 % 0.00 in
03:00 26.1 °F 23.6 °F 30.38 in North 1.0 mph 4.0 mph 90 % 0.00 in
03:05 26.1 °F 23.6 °F 30.38 in North 1.0 mph 4.0 mph 90 % 0.00 in
03:06 26.7 °F 24.0 °F 30.40 in Calm     90 % 0.00 in
03:10 26.1 °F 23.6 °F 30.38 in North 1.0 mph 4.0 mph 90 % 0.00 in
03:15 26.6 °F 24.1 °F 30.40 in Calm   4.0 mph 90 % 0.00 in
03:20 26.6 °F 24.1 °F 30.40 in Calm   4.0 mph 90 % 0.00 in
03:21 26.6 °F 24.0 °F 30.40 in Calm     90 % 0.00 in
03:25 26.6 °F 24.1 °F 30.40 in Calm   4.0 mph 90 % 0.00 in
03:30 26.7 °F 24.2 °F 30.40 in Calm     90 % 0.00 in
03:35 26.7 °F 24.2 °F 30.40 in Calm     90 % 0.00 in
03:36 26.1 °F 23.0 °F 30.41 in Calm     89 % 0.00 in
03:40 26.7 °F 24.2 °F 30.40 in Calm     90 % 0.00 in
03:45 26.3 °F 23.8 °F 30.41 in Calm     90 % 0.00 in
03:50 26.3 °F 23.8 °F 30.41 in Calm     90 % 0.00 in
03:51 25.6 °F 23.0 °F 30.41 in Calm     89 % 0.00 in
03:55 26.3 °F 23.8 °F 30.41 in Calm     90 % 0.00 in
04:00 25.8 °F 23.0 °F 30.41 in Calm     89 % 0.00 in
04:05 25.8 °F 23.0 °F 30.41 in Calm     89 % 0.00 in
04:06 25.1 °F 22.0 °F 30.40 in Calm     89 % 0.00 in
04:10 25.8 °F 23.0 °F 30.41 in Calm     89 % 0.00 in
04:15 25.3 °F 22.5 °F 30.40 in Calm     89 % 0.00 in
04:20 25.3 °F 22.5 °F 30.40 in Calm     89 % 0.00 in
04:21 24.6 °F 22.0 °F 30.41 in Calm     89 % 0.00 in
04:25 25.3 °F 22.5 °F 30.40 in Calm     89 % 0.00 in
04:30 24.8 °F 22.0 °F 30.41 in Calm     89 % 0.00 in
04:35 24.8 °F 22.0 °F 30.41 in Calm     89 % 0.00 in
04:36 24.1 °F 21.0 °F 30.41 in Calm     89 % 0.00 in
04:40 24.8 °F 22.0 °F 30.41 in Calm     89 % 0.00 in
04:45 24.3 °F 21.5 °F 30.41 in Calm     89 % 0.00 in
04:50 24.3 °F 21.5 °F 30.41 in Calm     89 % 0.00 in
04:51 23.9 °F 21.0 °F 30.40 in Calm     89 % 0.00 in
04:55 24.3 °F 21.5 °F 30.41 in Calm     89 % 0.00 in
05:00 23.9 °F 21.1 °F 30.41 in Calm     89 % 0.00 in
05:05 23.9 °F 21.1 °F 30.41 in Calm     89 % 0.00 in
05:06 23.6 °F 21.0 °F 30.41 in Calm     89 % 0.00 in
05:10 23.9 °F 21.1 °F 30.41 in Calm     89 % 0.00 in
05:15 23.8 °F 21.0 °F 30.41 in Calm     89 % 0.00 in
05:20 23.8 °F 21.0 °F 30.41 in Calm     89 % 0.00 in
05:21 23.3 °F 21.0 °F 30.41 in Calm     89 % 0.00 in
05:25 23.8 °F 21.0 °F 30.41 in Calm     89 % 0.00 in
05:30 23.4 °F 20.6 °F 30.41 in Calm     89 % 0.00 in
05:35 23.4 °F 20.6 °F 30.41 in Calm     89 % 0.00 in
05:36 23.0 °F 20.0 °F 30.41 in Calm     89 % 0.00 in
05:40 23.4 °F 20.6 °F 30.41 in Calm     89 % 0.00 in
05:45 23.1 °F 20.4 °F 30.41 in Calm     89 % 0.00 in
05:50 23.1 °F 20.4 °F 30.41 in Calm     89 % 0.00 in
05:51 23.0 °F 21.0 °F 30.41 in Calm     90 % 0.00 in
05:55 23.1 °F 20.4 °F 30.41 in Calm     89 % 0.00 in
06:00 23.0 °F 20.5 °F 30.42 in Calm     90 % 0.00 in
06:05 23.0 °F 20.5 °F 30.42 in Calm     90 % 0.00 in
06:06 23.1 °F 21.0 °F 30.40 in Calm     90 % 0.00 in
06:10 23.0 °F 20.5 °F 30.42 in Calm     90 % 0.00 in
06:15 23.0 °F 20.5 °F 30.41 in Calm     90 % 0.00 in
06:20 23.0 °F 20.5 °F 30.41 in Calm     90 % 0.00 in
06:21 23.4 °F 21.0 °F 30.40 in Calm     91 % 0.00 in
06:25 23.0 °F 20.5 °F 30.41 in Calm     90 % 0.00 in
06:30 23.3 °F 21.1 °F 30.40 in Calm     91 % 0.00 in
06:35 23.3 °F 21.1 °F 30.40 in Calm     91 % 0.00 in
06:36 23.8 °F 22.0 °F 30.40 in Calm     91 % 0.00 in
06:40 23.3 °F 21.1 °F 30.40 in Calm     91 % 0.00 in
06:45 23.6 °F 21.4 °F 30.40 in Calm     91 % 0.00 in
06:50 23.6 °F 21.4 °F 30.40 in Calm     91 % 0.00 in
06:51 24.1 °F 22.0 °F 30.41 in Calm     92 % 0.00 in
06:55 23.6 °F 21.4 °F 30.40 in Calm     91 % 0.00 in
07:00 23.9 °F 21.7 °F 30.41 in Calm     91 % 0.00 in
07:05 23.9 °F 21.7 °F 30.41 in Calm     91 % 0.00 in
07:06 24.5 °F 23.0 °F 30.39 in Calm     92 % 0.00 in
07:10 23.9 °F 21.7 °F 30.41 in Calm     91 % 0.00 in
07:15 24.2 °F 22.2 °F 30.40 in Calm     92 % 0.00 in
07:20 24.2 °F 22.2 °F 30.40 in Calm     92 % 0.00 in
07:21 24.9 °F 23.0 °F 30.41 in Calm     92 % 0.00 in
07:25 24.2 °F 22.2 °F 30.40 in Calm     92 % 0.00 in
07:30 24.7 °F 22.7 °F 30.40 in Calm     92 % 0.00 in
07:35 24.7 °F 22.7 °F 30.40 in Calm     92 % 0.00 in
07:36 25.2 °F 23.0 °F 30.42 in Calm     92 % 0.00 in
07:40 24.7 °F 22.7 °F 30.40 in Calm     92 % 0.00 in
07:45 25.1 °F 23.1 °F 30.42 in Calm     92 % 0.00 in
07:50 25.1 °F 23.1 °F 30.42 in Calm     92 % 0.00 in
07:51 26.2 °F 25.0 °F 30.42 in SW 1.0 mph 4.0 mph 93 % 0.00 in
07:55 25.1 °F 23.1 °F 30.42 in Calm     92 % 0.00 in
08:00 25.6 °F 23.9 °F 30.42 in Calm     93 % 0.00 in
08:05 25.6 °F 23.9 °F 30.42 in Calm     93 % 0.00 in
08:06 27.4 °F 26.0 °F 30.43 in SW 3.0 mph 3.0 mph 93 % 0.00 in
08:10 25.6 °F 23.9 °F 30.42 in Calm     93 % 0.00 in
08:15 27.0 °F 25.2 °F 30.43 in SW 1.0 mph 4.0 mph 93 % 0.00 in
08:20 27.0 °F 25.2 °F 30.43 in SW 1.0 mph 4.0 mph 93 % 0.00 in
08:21 28.2 °F 26.0 °F 30.45 in SW 2.0 mph 4.0 mph 92 % 0.00 in
08:25 27.0 °F 25.2 °F 30.43 in SW 1.0 mph 4.0 mph 93 % 0.00 in
08:30 27.9 °F 26.1 °F 30.44 in SW 1.0 mph 5.0 mph 93 % 0.00 in
08:35 27.9 °F 26.1 °F 30.44 in SW 1.0 mph 5.0 mph 93 % 0.00 in
08:40 27.9 °F 26.1 °F 30.44 in SW 1.0 mph 5.0 mph 93 % 0.00 in
08:45 29.8 °F 27.5 °F 30.45 in SW 2.0 mph 2.0 mph 91 % 0.00 in
08:50 30.2 °F 27.6 °F 30.45 in SW 2.0 mph 3.0 mph 90 % 0.00 in
08:51 30.2 °F 28.0 °F 30.45 in Calm   6.0 mph 90 % 0.00 in
08:55 30.3 °F 27.5 °F 30.45 in SW 2.0 mph 2.0 mph 89 % 0.00 in
09:00 30.5 °F 27.4 °F 30.46 in SW 2.0 mph 2.0 mph 88 % 0.00 in
09:05 30.6 °F 27.2 °F 30.46 in SW 2.0 mph 2.0 mph 87 % 0.00 in
09:07 30.7 °F 27.0 °F 30.46 in Calm   3.0 mph 87 % 0.00 in
09:10 30.7 °F 27.3 °F 30.46 in SW 1.0 mph 3.0 mph 87 % 0.00 in
09:15 31.1 °F 27.7 °F 30.46 in SW 1.0 mph   87 % 0.00 in
09:20 31.5 °F 27.8 °F 30.46 in SSW 1.0 mph 4.0 mph 86 % 0.00 in
09:22 31.8 °F 28.0 °F 30.46 in South 2.0 mph 6.0 mph 86 % 0.00 in
09:25 31.8 °F 28.1 °F 30.46 in SSW 1.0 mph 6.0 mph 86 % 0.00 in
09:30 31.8 °F 28.1 °F 30.46 in SSW 1.0 mph 6.0 mph 86 % 0.00 in
09:35 32.9 °F 28.3 °F 30.46 in South 2.0 mph 6.0 mph 83 % 0.00 in
09:37 33.5 °F 28.0 °F 30.46 in South 1.0 mph 9.0 mph 80 % 0.00 in
09:40 32.9 °F 28.3 °F 30.46 in South 2.0 mph 6.0 mph 83 % 0.00 in
09:45 32.9 °F 28.3 °F 30.46 in South 2.0 mph 6.0 mph 83 % 0.00 in
09:50 34.1 °F 28.0 °F 30.46 in South 2.0 mph 9.0 mph 78 % 0.00 in
09:52 34.5 °F 28.0 °F 30.46 in South 1.0 mph 6.0 mph 76 % 0.00 in
09:55 34.1 °F 28.0 °F 30.46 in South 2.0 mph 9.0 mph 78 % 0.00 in
10:00 34.1 °F 28.0 °F 30.46 in South 2.0 mph 9.0 mph 78 % 0.00 in
10:05 35.3 °F 28.2 °F 30.46 in South 2.0 mph 6.0 mph 75 % 0.00 in
10:07 36.1 °F 28.0 °F 30.45 in South 2.0 mph 8.0 mph 72 % 0.00 in
10:10 35.3 °F 28.2 °F 30.46 in South 2.0 mph 6.0 mph 75 % 0.00 in
10:15 35.3 °F 28.2 °F 30.46 in South 2.0 mph 6.0 mph 75 % 0.00 in
10:20 36.8 °F 28.3 °F 30.45 in South 3.0 mph 9.0 mph 71 % 0.00 in
10:22 37.6 °F 28.0 °F 30.45 in SE 3.0 mph 5.0 mph 69 % 0.00 in
10:25 36.8 °F 28.3 °F 30.45 in South 3.0 mph 9.0 mph 71 % 0.00 in
10:30 36.8 °F 28.3 °F 30.45 in South 3.0 mph 9.0 mph 71 % 0.00 in
10:35 39.0 °F 28.3 °F 30.45 in South 2.0 mph 7.0 mph 65 % 0.00 in
10:37 39.2 °F 27.0 °F 30.44 in SSE 4.0 mph 9.0 mph 63 % 0.00 in
10:40 39.0 °F 28.3 °F 30.45 in South 2.0 mph 7.0 mph 65 % 0.00 in
10:45 39.0 °F 28.3 °F 30.45 in South 2.0 mph 7.0 mph 65 % 0.00 in
10:50 39.5 °F 28.0 °F 30.44 in SE 3.0 mph 9.0 mph 63 % 0.00 in
10:52 39.5 °F 27.0 °F 30.44 in SSE 4.0 mph 9.0 mph 62 % 0.00 in
10:55 39.5 °F 28.0 °F 30.44 in SE 3.0 mph 9.0 mph 63 % 0.00 in
11:00 39.5 °F 28.0 °F 30.44 in SE 3.0 mph 9.0 mph 63 % 0.00 in
11:05 40.3 °F 27.9 °F 30.43 in SSE 3.0 mph 10.0 mph 61 % 0.00 in
11:07 40.9 °F 28.0 °F 30.43 in East 2.0 mph 8.0 mph 60 % 0.00 in
11:10 40.3 °F 27.9 °F 30.43 in SSE 3.0 mph 10.0 mph 61 % 0.00 in
11:15 40.3 °F 27.9 °F 30.43 in SSE 3.0 mph 10.0 mph 61 % 0.00 in
11:20 41.8 °F 28.5 °F 30.43 in ESE 3.0 mph 9.0 mph 59 % 0.00 in
11:22 42.3 °F 27.0 °F 30.43 in SSE 4.0 mph 10.0 mph 55 % 0.00 in
11:25 41.8 °F 28.5 °F 30.43 in ESE 3.0 mph 9.0 mph 59 % 0.00 in
11:30 41.8 °F 28.5 °F 30.43 in ESE 3.0 mph 9.0 mph 59 % 0.00 in
11:35 42.2 °F 27.2 °F 30.43 in South 4.0 mph 10.0 mph 55 % 0.00 in
11:37 42.7 °F 26.0 °F 30.43 in SE 3.0 mph 8.0 mph 53 % 0.00 in
11:40 42.2 °F 27.2 °F 30.43 in South 4.0 mph 10.0 mph 55 % 0.00 in
11:45 42.2 °F 27.2 °F 30.43 in South 4.0 mph 10.0 mph 55 % 0.00 in
11:50 43.5 °F 26.6 °F 30.43 in SSE 3.0 mph 9.0 mph 51 % 0.00 in
11:52 44.2 °F 27.0 °F 30.43 in East 2.0 mph 8.0 mph 51 % 0.00 in
11:55 43.5 °F 26.6 °F 30.43 in SSE 3.0 mph 9.0 mph 51 % 0.00 in
12:00 43.5 °F 26.6 °F 30.43 in SSE 3.0 mph 9.0 mph 51 % 0.00 in
12:05 44.7 °F 27.7 °F 30.43 in ESE 3.0 mph 9.0 mph 51 % 0.00 in
12:07 44.5 °F 25.0 °F 30.42 in SSE 5.0 mph 11.0 mph 47 % 0.00 in
12:10 44.7 °F 27.7 °F 30.43 in ESE 3.0 mph 9.0 mph 51 % 0.00 in
12:15 44.7 °F 27.7 °F 30.43 in ESE 3.0 mph 9.0 mph 51 % 0.00 in
12:20 43.8 °F 25.4 °F 30.42 in SSE 4.0 mph 11.0 mph 48 % 0.00 in
12:22 44.2 °F 26.0 °F 30.41 in SSE 1.0 mph 8.0 mph 49 % 0.00 in
12:25 43.8 °F 25.4 °F 30.42 in SSE 4.0 mph 11.0 mph 48 % 0.00 in
12:30 43.8 °F 25.4 °F 30.42 in SSE 4.0 mph 11.0 mph 48 % 0.00 in
12:35 45.8 °F 26.7 °F 30.40 in SE 4.0 mph 13.0 mph 47 % 0.00 in
12:40 45.8 °F 26.7 °F 30.40 in SE 4.0 mph 13.0 mph 47 % 0.00 in
12:45 45.8 °F 26.7 °F 30.40 in SE 4.0 mph 13.0 mph 47 % 0.00 in
12:50 46.3 °F 26.7 °F 30.39 in SE 3.0 mph 10.0 mph 46 % 0.00 in
12:52 47.0 °F 27.0 °F 30.38 in SE 4.0 mph 10.0 mph 46 % 0.00 in
12:55 46.3 °F 26.7 °F 30.39 in SE 3.0 mph 10.0 mph 46 % 0.00 in
13:00 46.3 °F 26.7 °F 30.39 in SE 3.0 mph 10.0 mph 46 % 0.00 in
13:05 47.2 °F 26.4 °F 30.38 in SE 3.0 mph 10.0 mph 44 % 0.00 in
13:07 47.8 °F 26.0 °F 30.37 in South 2.0 mph 8.0 mph 42 % 0.00 in
13:10 47.2 °F 26.4 °F 30.38 in SE 3.0 mph 10.0 mph 44 % 0.00 in
13:15 47.2 °F 26.4 °F 30.38 in SE 3.0 mph 10.0 mph 44 % 0.00 in
13:20 48.1 °F 23.7 °F 30.36 in SSE 3.0 mph 12.0 mph 38 % 0.00 in
13:22 48.1 °F 24.0 °F 30.35 in SE 2.0 mph 10.0 mph 39 % 0.00 in
13:25 48.1 °F 23.7 °F 30.36 in SSE 3.0 mph 12.0 mph 38 % 0.00 in
13:30 48.1 °F 23.7 °F 30.36 in SSE 3.0 mph 12.0 mph 38 % 0.00 in
13:35 48.8 °F 25.0 °F 30.35 in SSE 4.0 mph 10.0 mph 39 % 0.00 in
13:37 48.4 °F 24.0 °F 30.34 in SE 5.0 mph 12.0 mph 38 % 0.00 in
13:40 48.8 °F 25.0 °F 30.35 in SSE 4.0 mph 10.0 mph 39 % 0.00 in
13:45 48.8 °F 25.0 °F 30.35 in SSE 4.0 mph 10.0 mph 39 % 0.00 in
13:50 48.8 °F 25.0 °F 30.33 in SSE 4.0 mph 12.0 mph 39 % 0.00 in
13:53 49.1 °F 22.0 °F 30.32 in ESE 2.0 mph 12.0 mph 35 % 0.00 in
13:55 48.8 °F 25.0 °F 30.33 in SSE 4.0 mph 12.0 mph 39 % 0.00 in
14:00 48.8 °F 25.0 °F 30.33 in SSE 4.0 mph 12.0 mph 39 % 0.00 in
14:05 49.3 °F 22.8 °F 30.32 in SSE 5.0 mph 13.0 mph 35 % 0.00 in
14:08 49.4 °F 23.0 °F 30.31 in South 1.0 mph 15.0 mph 36 % 0.00 in
14:10 49.3 °F 22.8 °F 30.32 in SSE 5.0 mph 13.0 mph 35 % 0.00 in
14:15 49.3 °F 22.8 °F 30.32 in SSE 5.0 mph 13.0 mph 35 % 0.00 in
14:20 49.5 °F 23.7 °F 30.30 in South 4.0 mph 16.0 mph 36 % 0.00 in
14:23 49.5 °F 23.0 °F 30.30 in SSE 4.0 mph 20.0 mph 35 % 0.00 in
14:25 49.5 °F 23.7 °F 30.30 in South 4.0 mph 16.0 mph 36 % 0.00 in
14:30 49.5 °F 23.7 °F 30.30 in South 4.0 mph 16.0 mph 36 % 0.00 in
14:35 49.6 °F 22.4 °F 30.29 in SSE 5.0 mph 22.0 mph 34 % 0.00 in
14:38 49.9 °F 22.0 °F 30.28 in SSE 7.0 mph 11.0 mph 34 % 0.00 in
14:40 49.6 °F 22.4 °F 30.29 in SSE 5.0 mph 22.0 mph 34 % 0.00 in
14:45 49.6 °F 22.4 °F 30.29 in SSE 5.0 mph 22.0 mph 34 % 0.00 in
14:50 49.9 °F 22.7 °F 30.28 in SSE 5.0 mph 16.0 mph 34 % 0.00 in
14:53 49.9 °F 22.0 °F 30.28 in South 3.0 mph 13.0 mph 33 % 0.00 in
14:55 49.9 °F 22.7 °F 30.28 in SSE 5.0 mph 16.0 mph 34 % 0.00 in
15:00 49.9 °F 22.7 °F 30.28 in SSE 5.0 mph 16.0 mph 34 % 0.00 in
15:05 50.1 °F 23.5 °F 30.28 in South 4.0 mph 15.0 mph 35 % 0.00 in
15:08 50.1 °F 21.0 °F 30.29 in South 8.0 mph 11.0 mph 32 % 0.00 in
15:10 50.1 °F 23.5 °F 30.28 in South 4.0 mph 15.0 mph 35 % 0.00 in
15:15 50.1 °F 23.5 °F 30.28 in South 4.0 mph 15.0 mph 35 % 0.00 in
15:20 50.0 °F 22.8 °F 30.29 in South 5.0 mph 11.0 mph 34 % 0.00 in
15:23 50.0 °F 22.0 °F 30.28 in ESE 9.0 mph 14.0 mph 33 % 0.00 in
15:25 50.0 °F 22.8 °F 30.29 in South 5.0 mph 11.0 mph 34 % 0.00 in
15:30 50.0 °F 22.8 °F 30.29 in South 5.0 mph 11.0 mph 34 % 0.00 in
15:35 49.9 °F 22.0 °F 30.28 in SSE 4.0 mph 16.0 mph 33 % 0.00 in
15:38 49.9 °F 21.0 °F 30.28 in South 7.0 mph 10.0 mph 32 % 0.00 in
15:40 49.9 °F 22.0 °F 30.28 in SSE 4.0 mph 16.0 mph 33 % 0.00 in
15:45 49.9 °F 22.0 °F 30.28 in SSE 4.0 mph 16.0 mph 33 % 0.00 in
15:50 49.9 °F 22.0 °F 30.28 in SE 5.0 mph 16.0 mph 33 % 0.00 in
15:53 50.2 °F 22.0 °F 30.28 in SE 5.0 mph 11.0 mph 33 % 0.00 in
15:55 49.9 °F 22.0 °F 30.28 in SE 5.0 mph 16.0 mph 33 % 0.00 in
16:00 49.9 °F 22.0 °F 30.28 in SE 5.0 mph 16.0 mph 33 % 0.00 in
16:05 49.9 °F 22.7 °F 30.28 in SSE 4.0 mph 13.0 mph 34 % 0.00 in
16:08 50.2 °F 22.0 °F 30.28 in ESE 3.0 mph 11.0 mph 33 % 0.00 in
16:10 49.9 °F 22.7 °F 30.28 in SSE 4.0 mph 13.0 mph 34 % 0.00 in
16:15 49.9 °F 22.7 °F 30.28 in SSE 4.0 mph 13.0 mph 34 % 0.00 in
16:20 50.1 °F 22.1 °F 30.28 in SSE 4.0 mph 15.0 mph 33 % 0.00 in
16:23 50.0 °F 22.0 °F 30.28 in SE 3.0 mph 8.0 mph 34 % 0.00 in
16:25 50.1 °F 22.1 °F 30.28 in SSE 4.0 mph 15.0 mph 33 % 0.00 in
16:30 50.1 °F 22.1 °F 30.28 in SSE 4.0 mph 15.0 mph 33 % 0.00 in
16:35 49.9 °F 22.7 °F 30.28 in SE 4.0 mph 11.0 mph 34 % 0.00 in
16:38 49.8 °F 22.0 °F 30.27 in SSE 6.0 mph 9.0 mph 33 % 0.00 in
16:40 49.9 °F 22.7 °F 30.28 in SE 4.0 mph 11.0 mph 34 % 0.00 in
16:45 49.9 °F 22.7 °F 30.28 in SE 4.0 mph 11.0 mph 34 % 0.00 in
16:50 49.8 °F 22.6 °F 30.27 in SSE 4.0 mph 18.0 mph 34 % 0.00 in
16:53 49.5 °F 21.0 °F 30.27 in SSE 3.0 mph 19.0 mph 33 % 0.00 in
16:55 49.8 °F 22.6 °F 30.27 in SSE 4.0 mph 18.0 mph 34 % 0.00 in
17:00 49.8 °F 22.6 °F 30.27 in SSE 4.0 mph 18.0 mph 34 % 0.00 in
17:05 49.2 °F 22.0 °F 30.26 in SSE 5.0 mph 14.0 mph 34 % 0.00 in
17:08 49.1 °F 22.0 °F 30.26 in SSE 6.0 mph 10.0 mph 34 % 0.00 in
17:10 49.2 °F 22.0 °F 30.26 in SSE 5.0 mph 14.0 mph 34 % 0.00 in
17:15 49.2 °F 22.0 °F 30.26 in SSE 5.0 mph 14.0 mph 34 % 0.00 in
17:20 49.0 °F 21.9 °F 30.26 in South 5.0 mph 14.0 mph 34 % 0.00 in
17:23 48.8 °F 22.0 °F 30.26 in SSE 1.0 mph 12.0 mph 35 % 0.00 in
17:25 49.0 °F 21.9 °F 30.26 in South 5.0 mph 14.0 mph 34 % 0.00 in
17:30 49.0 °F 21.9 °F 30.26 in South 5.0 mph 14.0 mph 34 % 0.00 in
17:35 48.6 °F 22.2 °F 30.26 in SSE 4.0 mph 13.0 mph 35 % 0.00 in
17:38 48.4 °F 22.0 °F 30.26 in SE 1.0 mph 13.0 mph 35 % 0.00 in
17:40 48.6 °F 22.2 °F 30.26 in SSE 4.0 mph 13.0 mph 35 % 0.00 in
17:45 48.6 °F 22.2 °F 30.26 in SSE 4.0 mph 13.0 mph 35 % 0.00 in
17:50 48.2 °F 21.9 °F 30.26 in SSE 4.0 mph 15.0 mph 35 % 0.00 in
17:53 48.0 °F 21.0 °F 30.26 in SE 3.0 mph 12.0 mph 35 % 0.00 in
17:55 48.2 °F 21.9 °F 30.26 in SSE 4.0 mph 15.0 mph 35 % 0.00 in
18:00 48.2 °F 21.9 °F 30.26 in SSE 4.0 mph 15.0 mph 35 % 0.00 in
18:05 47.7 °F 22.1 °F 30.26 in SSE 4.0 mph 13.0 mph 36 % 0.00 in
18:08 47.4 °F 21.0 °F 30.26 in SE 2.0 mph 8.0 mph 36 % 0.00 in
18:10 47.7 °F 22.1 °F 30.26 in SSE 4.0 mph 13.0 mph 36 % 0.00 in
18:15 47.7 °F 22.1 °F 30.26 in SSE 4.0 mph 13.0 mph 36 % 0.00 in
18:20 47.1 °F 21.5 °F 30.26 in SE 3.0 mph 10.0 mph 36 % 0.00 in
18:23 46.7 °F 21.0 °F 30.27 in SE 3.0 mph 9.0 mph 36 % 0.00 in
18:25 47.1 °F 21.5 °F 30.26 in SE 3.0 mph 10.0 mph 36 % 0.00 in
18:30 47.1 °F 21.5 °F 30.26 in SE 3.0 mph 10.0 mph 36 % 0.00 in
18:35 46.6 °F 21.7 °F 30.27 in SSE 3.0 mph 11.0 mph 37 % 0.00 in
18:38 46.2 °F 21.0 °F 30.27 in SE 1.0 mph 4.0 mph 37 % 0.00 in
18:40 46.6 °F 21.7 °F 30.27 in SSE 3.0 mph 11.0 mph 37 % 0.00 in
18:45 46.6 °F 21.7 °F 30.27 in SSE 3.0 mph 11.0 mph 37 % 0.00 in
18:50 46.0 °F 21.8 °F 30.28 in SSE 2.0 mph 9.0 mph 38 % 0.00 in
18:53 45.7 °F 21.0 °F 30.28 in SSE 1.0 mph 7.0 mph 38 % 0.00 in
18:55 46.0 °F 21.8 °F 30.28 in SSE 2.0 mph 9.0 mph 38 % 0.00 in
19:00 46.0 °F 21.8 °F 30.28 in SSE 2.0 mph 9.0 mph 38 % 0.00 in
19:05 45.4 °F 21.9 °F 30.28 in SSE 1.0 mph 7.0 mph 39 % 0.00 in
19:08 45.1 °F 22.0 °F 30.28 in Calm   7.0 mph 40 % 0.00 in
19:10 45.4 °F 21.9 °F 30.28 in SSE 1.0 mph 7.0 mph 39 % 0.00 in
19:20 44.9 °F 22.6 °F 30.28 in SSE 2.0 mph 7.0 mph 41 % 0.00 in
19:23 44.6 °F 22.0 °F 30.28 in SSE 6.0 mph 6.0 mph 41 % 0.00 in
19:25 44.9 °F 22.6 °F 30.28 in SSE 2.0 mph 7.0 mph 41 % 0.00 in
19:30 44.9 °F 22.6 °F 30.28 in SSE 2.0 mph 7.0 mph 41 % 0.00 in
19:35 44.3 °F 22.7 °F 30.28 in SSE 1.0 mph 6.0 mph 42 % 0.00 in
19:38 44.0 °F 23.0 °F 30.28 in SSE 1.0 mph 6.0 mph 43 % 0.00 in
19:40 44.3 °F 22.7 °F 30.28 in SSE 1.0 mph 6.0 mph 42 % 0.00 in
19:45 44.3 °F 22.7 °F 30.28 in SSE 1.0 mph 6.0 mph 42 % 0.00 in
19:50 43.7 °F 23.2 °F 30.28 in SSE 2.0 mph 8.0 mph 44 % 0.00 in
19:53 43.4 °F 23.0 °F 30.28 in Calm   4.0 mph 45 % 0.00 in
19:55 43.7 °F 23.2 °F 30.28 in SSE 2.0 mph 8.0 mph 44 % 0.00 in
20:00 43.7 °F 23.2 °F 30.28 in SSE 2.0 mph 8.0 mph 44 % 0.00 in
20:05 43.2 °F 23.3 °F 30.28 in East 1.0 mph 4.0 mph 45 % 0.00 in
20:08 42.9 °F 23.0 °F 30.28 in ESE 2.0 mph 3.0 mph 45 % 0.00 in
20:10 43.2 °F 23.3 °F 30.28 in East 1.0 mph 4.0 mph 45 % 0.00 in
20:15 43.2 °F 23.3 °F 30.28 in East 1.0 mph 4.0 mph 45 % 0.00 in
20:20 42.7 °F 23.9 °F 30.28 in ESE 1.0 mph 7.0 mph 47 % 0.00 in
20:23 42.3 °F 24.0 °F 30.28 in SSE 2.0 mph 7.0 mph 48 % 0.00 in
20:25 42.7 °F 23.9 °F 30.28 in ESE 1.0 mph 7.0 mph 47 % 0.00 in
20:30 42.7 °F 23.9 °F 30.28 in ESE 1.0 mph 7.0 mph 47 % 0.00 in
20:35 42.2 °F 23.9 °F 30.29 in SSE 2.0 mph 7.0 mph 48 % 0.00 in
20:38 42.0 °F 24.0 °F 30.29 in SE 4.0 mph 8.0 mph 49 % 0.00 in
20:40 42.2 °F 23.9 °F 30.29 in SSE 2.0 mph 7.0 mph 48 % 0.00 in
20:45 42.2 °F 23.9 °F 30.29 in SSE 2.0 mph 7.0 mph 48 % 0.00 in
20:50 41.9 °F 24.1 °F 30.29 in SE 2.0 mph 9.0 mph 49 % 0.00 in
20:53 41.7 °F 24.0 °F 30.30 in Calm   3.0 mph 50 % 0.00 in
20:55 41.9 °F 24.1 °F 30.29 in SE 2.0 mph 9.0 mph 49 % 0.00 in
21:00 41.9 °F 24.1 °F 30.29 in SE 2.0 mph 9.0 mph 49 % 0.00 in
21:05 41.5 °F 24.3 °F 30.29 in SSE 1.0 mph 5.0 mph 50 % 0.00 in
21:08 41.5 °F 24.0 °F 30.29 in SE 2.0 mph 4.0 mph 50 % 0.00 in
21:10 41.5 °F 24.3 °F 30.29 in SSE 1.0 mph 5.0 mph 50 % 0.00 in
21:15 41.5 °F 24.3 °F 30.29 in SSE 1.0 mph 5.0 mph 50 % 0.00 in
21:20 41.4 °F 24.2 °F 30.29 in SE 1.0 mph 4.0 mph 50 % 0.00 in
21:23 41.2 °F 24.0 °F 30.29 in SE 3.0 mph 9.0 mph 50 % 0.00 in
21:25 41.4 °F 24.2 °F 30.29 in SE 1.0 mph 4.0 mph 50 % 0.00 in
21:30 41.4 °F 24.2 °F 30.29 in SE 1.0 mph 4.0 mph 50 % 0.00 in
21:35 41.1 °F 23.9 °F 30.29 in ESE 2.0 mph 9.0 mph 50 % 0.00 in
21:38 40.9 °F 24.0 °F 30.29 in Calm   4.0 mph 51 % 0.00 in
21:40 41.1 °F 23.9 °F 30.29 in ESE 2.0 mph 9.0 mph 50 % 0.00 in
21:45 41.1 °F 23.9 °F 30.29 in ESE 2.0 mph 9.0 mph 50 % 0.00 in
21:50 40.8 °F 24.1 °F 30.30 in SE 1.0 mph 6.0 mph 51 % 0.00 in
21:53 40.6 °F 24.0 °F 30.30 in SE 4.0 mph 7.0 mph 51 % 0.00 in
21:55 40.8 °F 24.1 °F 30.30 in SE 1.0 mph 6.0 mph 51 % 0.00 in
22:00 40.8 °F 24.1 °F 30.30 in SE 1.0 mph 6.0 mph 51 % 0.00 in
22:05 40.6 °F 23.9 °F 30.30 in SE 2.0 mph 8.0 mph 51 % 0.00 in
22:08 40.4 °F 24.0 °F 30.30 in SE 1.0 mph 4.0 mph 52 % 0.00 in
22:10 40.6 °F 23.9 °F 30.30 in SE 2.0 mph 8.0 mph 51 % 0.00 in
22:15 40.6 °F 23.9 °F 30.30 in SE 2.0 mph 8.0 mph 51 % 0.00 in
22:20 40.2 °F 24.5 °F 30.30 in SE 1.0 mph 5.0 mph 53 % 0.00 in
22:23 39.9 °F 24.0 °F 30.30 in SSE 2.0 mph 7.0 mph 54 % 0.00 in
22:25 40.2 °F 24.5 °F 30.30 in SE 1.0 mph 5.0 mph 53 % 0.00 in
22:30 40.2 °F 24.5 °F 30.30 in SE 1.0 mph 5.0 mph 53 % 0.00 in
22:35 39.7 °F 24.9 °F 30.29 in SSE 2.0 mph 7.0 mph 55 % 0.00 in
22:38 39.5 °F 25.0 °F 30.29 in SE 2.0 mph 5.0 mph 56 % 0.00 in
22:40 39.7 °F 24.9 °F 30.29 in SSE 2.0 mph 7.0 mph 55 % 0.00 in
22:45 39.7 °F 24.9 °F 30.29 in SSE 2.0 mph 7.0 mph 55 % 0.00 in
22:50 39.3 °F 25.4 °F 30.30 in SE 2.0 mph 5.0 mph 57 % 0.00 in
22:53 39.1 °F 25.0 °F 30.29 in SSE 2.0 mph 8.0 mph 58 % 0.00 in
22:55 39.3 °F 25.4 °F 30.30 in SE 2.0 mph 5.0 mph 57 % 0.00 in
23:00 39.3 °F 25.4 °F 30.30 in SE 2.0 mph 5.0 mph 57 % 0.00 in
23:05 38.9 °F 25.8 °F 30.29 in SSE 2.0 mph 8.0 mph 59 % 0.00 in
23:08 38.7 °F 26.0 °F 30.30 in SSE 2.0 mph 9.0 mph 60 % 0.00 in
23:10 38.9 °F 25.8 °F 30.29 in SSE 2.0 mph 8.0 mph 59 % 0.00 in
23:15 38.9 °F 25.8 °F 30.29 in SSE 2.0 mph 8.0 mph 59 % 0.00 in
23:20 38.6 °F 25.9 °F 30.30 in SSE 2.0 mph 9.0 mph 60 % 0.00 in
23:23 38.4 °F 26.0 °F 30.29 in ESE 4.0 mph 7.0 mph 61 % 0.00 in
23:25 38.6 °F 25.9 °F 30.30 in SSE 2.0 mph 9.0 mph 60 % 0.00 in
23:30 38.6 °F 25.9 °F 30.30 in SSE 2.0 mph 9.0 mph 60 % 0.00 in
23:35 38.3 °F 26.0 °F 30.29 in SE 3.0 mph 7.0 mph 61 % 0.00 in
23:38 38.1 °F 26.0 °F 30.29 in SE 3.0 mph 7.0 mph 62 % 0.00 in
23:40 38.3 °F 26.0 °F 30.29 in SE 3.0 mph 7.0 mph 61 % 0.00 in
23:45 38.3 °F 26.0 °F 30.29 in SE 3.0 mph 7.0 mph 61 % 0.00 in
23:50 37.9 °F 26.4 °F 30.29 in SSE 3.0 mph 9.0 mph 63 % 0.00 in
23:53 37.8 °F 26.0 °F 30.28 in SE 4.0 mph 8.0 mph 63 % 0.00 in
23:55 37.9 °F 26.4 °F 30.29 in SSE 3.0 mph 9.0 mph 63 % 0.00 in
Des Moines Weather and Climate
Compliments of Weather Underground - 4.5 mb

Script developed by  Jim McMurry - jmcmurry@mwt.net Adapted for the template by  Wim van der Kuil - Leuven-Template.eu

You find our weather info also at:

Weather Underground

Equipment we use:

Weather-station
Davis VP2 Plus

Weather-program
Davis Weatherlink.Com

Weather-server
iMac (Retina 4K, 21.5-inch, Late 2015)

Provider
Hostmonster.com

Davis VP2 Plus

Davis Weatherlink.Com

iMac (Retina 4K, 21.5-inch, Late 2015)

Hostmonster.com